createdAt,value
2023-02-16T00:04:20.962Z,27.00
2023-02-16T00:09:26.803Z,27.23
2023-02-16T00:14:31.661Z,37.30
2023-02-16T00:19:40.705Z,39.10
2023-02-16T00:24:45.601Z,32.67
2023-02-16T00:29:50.303Z,37.72
2023-02-16T00:34:57.775Z,35.00
2023-02-16T00:40:12.958Z,32.88
2023-02-16T00:45:20.264Z,30.15
2023-02-16T00:50:30.185Z,30.48
2023-02-16T00:55:36.551Z,29.75
2023-02-16T01:00:43.961Z,29.42
2023-02-16T01:06:11.348Z,26.60
2023-02-16T01:11:16.272Z,27.27
2023-02-16T01:16:21.952Z,27.80
2023-02-16T01:21:29.443Z,27.00
2023-02-16T01:26:35.706Z,26.77
2023-02-16T01:31:40.726Z,27.13
2023-02-16T01:36:48.887Z,32.88
2023-02-16T01:42:17.787Z,31.15
2023-02-16T01:47:29.523Z,32.95
2023-02-16T01:52:37.935Z,29.52
2023-02-16T01:57:44.941Z,30.73
2023-02-16T02:02:51.386Z,29.08
2023-02-16T02:08:02.111Z,29.60
2023-02-16T02:13:08.859Z,30.27
2023-02-16T02:18:13.685Z,30.48
2023-02-16T02:23:37.824Z,30.30
2023-02-16T02:28:50.678Z,29.80
2023-02-16T02:33:58.925Z,28.92
2023-02-16T02:39:15.265Z,31.63
2023-02-16T02:44:25.093Z,27.42
2023-02-16T02:49:31.208Z,30.08
2023-02-16T02:54:49.622Z,30.00
2023-02-16T03:00:13.421Z,28.35
2023-02-16T03:05:18.589Z,29.90
2023-02-16T03:10:37.981Z,26.75
2023-02-16T03:15:47.679Z,28.48
2023-02-16T03:21:05.375Z,29.05
2023-02-16T03:26:22.619Z,26.15
2023-02-16T03:31:32.923Z,28.38
2023-02-16T03:41:43.298Z,29.83
2023-02-16T03:46:52.235Z,28.13
2023-02-16T03:51:57.182Z,28.05
2023-02-16T03:57:01.995Z,26.23
2023-02-16T04:02:09.563Z,27.92
2023-02-16T04:07:14.619Z,27.83
2023-02-16T04:12:31.691Z,28.15
2023-02-16T04:17:39.430Z,29.88
2023-02-16T04:22:44.380Z,28.60
2023-02-16T04:27:49.464Z,30.35
2023-02-16T04:32:57.089Z,31.13
2023-02-16T04:38:01.926Z,32.85
2023-02-16T04:43:06.788Z,29.80
2023-02-16T04:48:14.359Z,32.90
2023-02-16T04:53:19.263Z,31.30
2023-02-16T04:58:23.980Z,34.08
2023-02-16T05:03:31.573Z,31.70
2023-02-16T05:08:36.520Z,30.83
2023-02-16T05:13:53.632Z,30.55
2023-02-16T05:19:02.994Z,31.73
2023-02-16T05:24:22.177Z,34.40
2023-02-16T05:29:27.014Z,31.95
2023-02-16T05:34:34.480Z,28.92
2023-02-16T05:39:39.319Z,28.80
2023-02-16T05:44:44.136Z,28.50
2023-02-16T05:49:51.663Z,28.23
2023-02-16T05:54:56.650Z,28.27
2023-02-16T06:00:01.511Z,27.45
2023-02-16T06:05:09.389Z,27.35
2023-02-16T06:10:19.876Z,27.45
2023-02-16T06:15:24.794Z,30.08
2023-02-16T06:20:32.381Z,29.10
2023-02-16T06:25:37.581Z,31.92
2023-02-16T06:30:42.982Z,32.63
2023-02-16T06:35:50.384Z,34.83
2023-02-16T06:40:55.494Z,37.00
2023-02-16T06:46:00.444Z,35.92
2023-02-16T06:51:08.216Z,39.97
2023-02-16T06:56:13.225Z,39.15
2023-02-16T07:01:23.544Z,35.03
2023-02-16T07:11:36.355Z,33.97
2023-02-16T07:16:41.313Z,35.33
2023-02-16T07:21:47.734Z,34.72
2023-02-16T07:26:55.368Z,34.33
2023-02-16T07:32:05.539Z,34.28
2023-02-16T07:37:10.623Z,35.95
2023-02-16T07:42:17.980Z,34.03
2023-02-16T07:47:22.799Z,31.33
2023-02-16T07:52:31.412Z,29.70
2023-02-16T07:57:41.224Z,29.83
2023-02-16T08:02:46.143Z,30.53
2023-02-16T08:07:51.249Z,32.15
2023-02-16T08:13:01.443Z,30.42
2023-02-16T08:18:08.475Z,30.50
2023-02-16T08:23:14.757Z,39.97
2023-02-16T08:28:29.721Z,27.92
2023-02-16T08:33:37.375Z,26.83
2023-02-16T08:38:46.710Z,23.38
2023-02-16T08:43:56.803Z,28.13
2023-02-16T08:49:04.175Z,28.55
2023-02-16T08:54:14.832Z,27.35
2023-02-16T08:59:41.082Z,24.27
2023-02-16T09:04:50.769Z,23.80
2023-02-16T09:09:55.695Z,22.98
2023-02-16T09:15:14.744Z,22.35
2023-02-16T09:20:20.794Z,30.58
2023-02-16T09:25:31.206Z,21.88
2023-02-16T09:30:48.369Z,21.90
2023-02-16T09:35:53.185Z,23.58
2023-02-16T09:41:00.964Z,22.15
2023-02-16T09:46:14.075Z,28.70
2023-02-16T09:51:29.427Z,20.88
2023-02-16T09:56:39.554Z,20.73
2023-02-16T10:01:50.901Z,22.77
2023-02-16T10:07:04.931Z,21.63
2023-02-16T10:12:11.626Z,23.30
2023-02-16T10:17:24.168Z,24.00
2023-02-16T10:22:31.656Z,21.75
2023-02-16T10:27:40.998Z,21.63
2023-02-16T10:32:54.315Z,21.00
2023-02-16T10:49:02.739Z,19.52
2023-02-16T10:54:09.081Z,19.52
2023-02-16T10:59:18.350Z,18.58
2023-02-16T11:04:50.166Z,18.77
2023-02-16T11:10:29.886Z,20.33
2023-02-16T11:21:03.880Z,19.98
2023-02-16T11:26:35.926Z,18.20
2023-02-16T11:31:41.684Z,38.70
2023-02-16T11:43:02.159Z,28.02
2023-02-16T11:48:09.055Z,18.63
2023-02-16T11:53:18.853Z,18.15
2023-02-16T11:58:32.384Z,18.73
2023-02-16T12:03:59.934Z,24.33
2023-02-16T12:15:11.766Z,16.20
2023-02-16T12:20:40.142Z,23.63
2023-02-16T12:26:16.566Z,18.77
2023-02-16T12:31:43.347Z,20.05
2023-02-16T12:36:58.385Z,21.67
2023-02-16T12:42:15.928Z,19.25
2023-02-16T12:47:50.361Z,19.27
2023-02-16T12:52:58.131Z,19.58
2023-02-16T12:58:05.074Z,18.77
2023-02-16T13:03:25.316Z,21.55
2023-02-16T13:13:58.891Z,19.90
2023-02-16T13:19:15.966Z,21.85
2023-02-16T13:24:39.491Z,19.58
2023-02-16T13:30:07.205Z,18.30
2023-02-16T13:35:20.403Z,18.63
2023-02-16T13:40:40.396Z,20.27
2023-02-16T13:45:56.589Z,20.65
2023-02-16T13:51:07.545Z,22.95
2023-02-16T13:56:42.186Z,20.27
2023-02-16T14:07:43.917Z,17.42
2023-02-16T14:25:45.171Z,21.50
2023-02-16T14:36:26.549Z,20.20
2023-02-16T14:41:35.403Z,22.10
2023-02-16T14:46:58.054Z,20.13
2023-02-16T14:52:17.796Z,18.85
2023-02-16T14:57:28.589Z,29.37
2023-02-16T15:02:34.793Z,25.95
2023-02-16T15:07:42.579Z,21.90
2023-02-16T15:12:50.254Z,21.88
2023-02-16T15:17:57.372Z,21.20
2023-02-16T15:23:03.257Z,23.90
2023-02-16T15:28:20.240Z,24.55
2023-02-16T15:33:38.108Z,24.45
2023-02-16T15:38:59.854Z,34.67
2023-02-16T15:44:09.040Z,27.83
2023-02-16T15:49:17.772Z,27.70
2023-02-16T15:54:27.117Z,37.72
2023-02-16T15:59:39.245Z,38.03
2023-02-16T16:04:44.939Z,31.98
2023-02-16T16:09:50.261Z,27.95
2023-02-16T16:14:58.739Z,25.77
2023-02-16T16:20:21.421Z,26.10
2023-02-16T16:25:34.237Z,25.83
2023-02-16T16:31:08.744Z,29.70
2023-02-16T16:36:17.110Z,31.05
2023-02-16T16:41:28.915Z,31.77
2023-02-16T16:46:33.959Z,34.30
2023-02-16T16:51:43.425Z,35.90
2023-02-16T16:56:48.527Z,36.67
2023-02-16T17:01:53.566Z,31.83
2023-02-16T17:07:01.167Z,29.83
2023-02-16T17:12:06.300Z,30.08
2023-02-16T17:17:14.533Z,34.42
2023-02-16T17:22:23.657Z,33.70
2023-02-16T17:32:47.243Z,39.80
2023-02-16T17:37:59.019Z,32.60
2023-02-16T17:43:13.104Z,30.08
2023-02-16T17:48:20.927Z,38.20
2023-02-16T17:53:29.642Z,56.13
2023-02-16T17:58:34.654Z,44.22
2023-02-16T18:03:39.819Z,42.17
2023-02-16T18:08:47.860Z,50.20
2023-02-16T18:13:52.817Z,55.80
2023-02-16T18:18:58.520Z,55.28
2023-02-16T18:24:06.061Z,63.28
2023-02-16T18:29:11.305Z,68.53
2023-02-16T18:34:16.431Z,90.82
2023-02-16T18:39:24.013Z,120.28
2023-02-16T18:44:30.526Z,100.68
2023-02-16T18:49:35.696Z,77.65
2023-02-16T18:54:43.730Z,65.30
2023-02-16T18:59:48.730Z,63.42
2023-02-16T19:04:53.636Z,65.13
2023-02-16T19:10:10.568Z,64.03
2023-02-16T19:15:43.572Z,66.82
2023-02-16T19:20:48.630Z,69.60
2023-02-16T19:25:55.975Z,75.95
2023-02-16T19:31:02.987Z,74.50
2023-02-16T19:36:09.155Z,93.25
2023-02-16T19:41:19.714Z,113.78
2023-02-16T19:46:24.552Z,142.95
2023-02-16T19:51:29.808Z,123.07
2023-02-16T19:56:40.789Z,116.63
2023-02-16T20:01:45.630Z,128.95
2023-02-16T20:06:50.396Z,123.13
2023-02-16T20:11:57.934Z,132.00
2023-02-16T20:17:02.798Z,129.15
2023-02-16T20:22:07.625Z,126.95
2023-02-16T20:27:15.549Z,126.00
2023-02-16T20:38:00.934Z,105.57
2023-02-16T20:48:50.344Z,104.03
2023-02-16T20:53:56.906Z,101.75
2023-02-16T20:59:01.997Z,100.20
2023-02-16T21:04:13.041Z,98.05
2023-02-16T21:09:18.302Z,96.43
2023-02-16T21:14:26.599Z,92.63
2023-02-16T21:19:34.338Z,102.90
2023-02-16T21:24:43.724Z,94.03
2023-02-16T21:35:14.988Z,98.03
2023-02-16T21:40:31.880Z,97.55
2023-02-16T21:45:36.703Z,100.90
2023-02-16T21:50:44.688Z,96.30
2023-02-16T21:56:01.702Z,95.72
2023-02-16T22:01:06.702Z,94.70
2023-02-16T22:06:14.163Z,90.18
2023-02-16T22:11:19.359Z,95.97
2023-02-16T22:16:24.253Z,96.95
2023-02-16T22:21:44.168Z,95.10
2023-02-16T22:26:50.415Z,95.00
2023-02-16T22:31:55.352Z,93.75
2023-02-16T22:37:02.989Z,92.78
2023-02-16T22:42:08.014Z,91.03
2023-02-16T22:47:12.986Z,89.68
2023-02-16T22:52:20.694Z,87.47
2023-02-16T22:57:25.661Z,87.45
2023-02-16T23:02:30.511Z,86.65
2023-02-16T23:07:38.530Z,84.18
2023-02-16T23:12:43.404Z,81.18
2023-02-16T23:17:48.252Z,82.97
2023-02-16T23:22:55.648Z,83.90
2023-02-16T23:28:00.580Z,92.72
2023-02-16T23:33:05.418Z,82.97
2023-02-16T23:43:41.852Z,94.82
2023-02-16T23:48:47.197Z,104.28
2023-02-16T23:53:54.658Z,98.60
2023-02-16T23:59:00.679Z,97.45
